Time;durP1;ratioP1;P1;durP2;ratioP2;P2;SDS_P1;SDS_P2;PMS_P1;PMS_P2;Temp;Humidity;BMP_temperature;BMP_pressure;BME280_temperature;BME280_humidity;BME280_pressure;Samples;Min_cycle;Max_cycle;Signal;HPM_P1;HPM_P2
2021/10/08 00:02:18;;;;;;;0.20;0.20;;;;;;;;;;4817682;28;20203;-76
2021/10/08 00:04:40;;;;;;;0.37;0.37;;;3.80;52.20;;;;;;4819374;28;20223;-85
2021/10/08 00:07:02;;;;;;;0.30;0.30;;;3.50;52.00;;;;;;4838907;28;20288;-79
2021/10/08 00:09:28;;;;;;;0.30;0.30;;;3.70;52.80;;;;;;4841059;28;20186;-82
2021/10/08 00:11:52;;;;;;;0.30;0.30;;;3.40;52.20;;;;;;4839790;28;20553;-83
2021/10/08 00:14:15;;;;;;;0.30;0.30;;;3.60;52.70;;;;;;4840655;28;20179;-83
2021/10/08 00:16:37;;;;;;;0.30;0.30;;;;;;;;;;4841549;28;20229;-84
2021/10/08 00:19:00;;;;;;;0.30;0.30;;;;;;;;;;4824085;28;20624;-83
2021/10/08 00:21:23;;;;;;;0.30;0.30;;;;;;;;;;4824456;28;20257;-74
2021/10/08 00:23:45;;;;;;;0.30;0.30;;;3.40;51.00;;;;;;4840858;28;20218;-77
2021/10/08 00:26:09;;;;;;;0.30;0.30;;;3.20;51.20;;;;;;4841093;28;20187;-75
2021/10/08 00:28:32;;;;;;;0.20;0.20;;;3.20;51.90;;;;;;4856158;28;20202;-74
2021/10/08 00:30:55;;;;;;;0.20;0.20;;;;;;;;;;4840593;28;20703;-75
2021/10/08 00:33:17;;;;;;;0.20;0.20;;;3.40;51.20;;;;;;4823656;28;20263;-79
2021/10/08 00:35:40;;;;;;;0.20;0.20;;;3.50;51.20;;;;;;4823292;28;20231;-84
2021/10/08 00:38:04;;;;;;;0.30;0.30;;;3.40;51.10;;;;;;4840731;28;20641;-74
2021/10/08 00:40:27;;;;;;;0.30;0.30;;;3.10;51.30;;;;;;4823188;28;20211;-82
2021/10/08 00:42:51;;;;;;;0.30;0.30;;;3.30;51.10;;;;;;4839167;28;20190;-83
2021/10/08 00:45:14;;;;;;;0.40;0.40;;;;;;;;;;4839831;28;20265;-80
2021/10/08 00:47:36;;;;;;;0.20;0.20;;;;;;;;;;4840501;28;20182;-79
2021/10/08 00:50:00;;;;;;;0.30;0.30;;;3.10;52.20;;;;;;4822925;28;20211;-75
2021/10/08 00:52:22;;;;;;;0.23;0.23;;;2.90;52.30;;;;;;4855316;28;20202;-74
2021/10/08 00:54:45;;;;;;;0.30;0.30;;;2.90;51.90;;;;;;4855105;28;20749;-79
2021/10/08 00:57:08;;;;;;;0.20;0.20;;;;;;;;;;4855205;28;20206;-75
2021/10/08 00:59:34;;;;;;;0.20;0.20;;;2.60;51.70;;;;;;4822566;28;20335;-81
2021/10/08 01:01:57;;;;;;;0.20;0.20;;;;;;;;;;4838286;28;20208;-76
2021/10/08 01:04:23;;;;;;;0.20;0.20;;;3.80;51.90;;;;;;4840142;28;20214;-78
2021/10/08 01:06:46;;;;;;;0.40;0.40;;;2.90;51.30;;;;;;4839820;28;20222;-87
2021/10/08 01:09:09;;;;;;;0.20;0.20;;;;;;;;;;4840231;28;20179;-83
2021/10/08 01:11:31;;;;;;;0.30;0.30;;;2.80;52.40;;;;;;4822564;28;20195;-84
2021/10/08 01:13:54;;;;;;;0.20;0.20;;;2.80;52.20;;;;;;4830407;28;20194;-80
2021/10/08 01:16:23;;;;;;;0.20;0.20;;;2.70;51.90;;;;;;4841452;28;20206;-79
2021/10/08 01:18:47;;;;;;;0.30;0.30;;;3.70;53.60;;;;;;4824457;28;20191;-76
2021/10/08 01:21:11;;;;;;;0.27;0.27;;;2.60;53.40;;;;;;4859051;28;20185;-77
2021/10/08 01:23:34;;;;;;;0.30;0.30;;;2.60;52.30;;;;;;4840741;28;20222;-77
2021/10/08 01:25:57;;;;;;;0.23;0.23;;;2.70;52.40;;;;;;4835069;28;20199;-78
2021/10/08 01:28:24;;;;;;;0.20;0.20;;;2.20;52.40;;;;;;4822235;28;20195;-76
2021/10/08 01:30:51;;;;;;;0.20;0.20;;;2.50;53.80;;;;;;4854449;28;20613;-78
2021/10/08 01:33:18;;;;;;;0.20;0.20;;;;;;;;;;4854516;28;20259;-79
2021/10/08 01:35:47;;;;;;;0.27;0.27;;;2.20;53.70;;;;;;4821807;28;20638;-76
2021/10/08 01:38:11;;;;;;;0.30;0.30;;;2.10;53.20;;;;;;4854503;28;20769;-78
2021/10/08 01:40:35;;;;;;;0.50;0.50;;;2.30;52.70;;;;;;4854166;28;20675;-74
2021/10/08 01:43:16;;;;;;;0.40;0.40;;;2.20;52.00;;;;;;4821802;28;20257;-76
2021/10/08 01:45:40;;;;;;;0.40;0.40;;;2.20;52.10;;;;;;4821493;28;20285;-75
2021/10/08 01:48:07;;;;;;;0.40;0.40;;;2.20;52.50;;;;;;4839584;28;20245;-77
2021/10/08 01:50:31;;;;;;;0.50;0.50;;;2.40;50.90;;;;;;4837778;28;20179;-79
2021/10/08 01:52:58;;;;;;;0.57;0.57;;;2.30;50.80;;;;;;4819001;28;20191;-78
2021/10/08 01:55:22;;;;;;;0.30;0.30;;;2.30;51.00;;;;;;4819163;28;20195;-74
2021/10/08 01:57:55;;;;;;;0.47;0.47;;;2.20;51.10;;;;;;4820336;28;20233;-82
2021/10/08 02:00:20;;;;;;;1.03;0.63;;;;;;;;;;4818736;28;20199;-79
2021/10/08 02:02:54;;;;;;;0.60;0.60;;;2.00;51.30;;;;;;4786012;28;20251;-74
2021/10/08 02:05:22;;;;;;;0.50;0.50;;;2.00;51.30;;;;;;4818907;28;20783;-79
2021/10/08 02:07:47;;;;;;;0.73;0.73;;;1.50;51.90;;;;;;4818868;28;20219;-77
2021/10/08 02:10:12;;;;;;;0.50;0.50;;;2.10;52.50;;;;;;4835090;28;20265;-80
2021/10/08 02:12:36;;;;;;;0.50;0.50;;;1.80;52.20;;;;;;4819006;28;20211;-74
2021/10/08 02:15:00;;;;;;;0.40;0.40;;;1.40;51.60;;;;;;4801387;28;20208;-76
2021/10/08 02:17:23;;;;;;;0.50;0.50;;;1.80;51.80;;;;;;4818840;28;20314;-73
2021/10/08 02:19:46;;;;;;;0.60;0.60;;;2.00;50.50;;;;;;4818139;28;20199;-76
2021/10/08 02:22:08;;;;;;;0.40;0.40;;;1.80;50.40;;;;;;4818960;28;20207;-76
2021/10/08 02:24:36;;;;;;;0.40;0.40;;;1.80;51.60;;;;;;4818559;28;20219;-73
2021/10/08 02:26:59;;;;;;;0.30;0.30;;;1.80;51.60;;;;;;4819469;28;20266;-82
2021/10/08 02:29:27;;;;;;;0.40;0.40;;;1.80;50.00;;;;;;4818998;28;20242;-85
2021/10/08 02:31:51;;;;;;;0.40;0.40;;;2.00;50.00;;;;;;4819364;28;20623;-87
2021/10/08 02:34:14;;;;;;;0.30;0.30;;;1.70;49.70;;;;;;4819444;28;20195;-89
2021/10/08 02:36:36;;;;;;;0.30;0.30;;;1.80;49.90;;;;;;4819077;28;20203;-86
2021/10/08 02:38:59;;;;;;;0.77;0.60;;;1.40;50.90;;;;;;4818883;28;20327;-83
2021/10/08 02:41:23;;;;;;;0.30;0.30;;;;;;;;;;4821506;28;20755;-81
2021/10/08 02:43:45;;;;;;;0.40;0.40;;;1.80;50.00;;;;;;4838842;28;20236;-84
2021/10/08 02:46:09;;;;;;;0.30;0.30;;;1.60;50.00;;;;;;4853711;28;20265;-87
2021/10/08 02:48:32;;;;;;;0.40;0.40;;;1.70;51.20;;;;;;4854019;28;20202;-83
2021/10/08 02:50:56;;;;;;;0.30;0.30;;;1.70;50.00;;;;;;4853820;28;20249;-84
2021/10/08 02:53:20;;;;;;;0.30;0.30;;;;;;;;;;4820787;28;20195;-83
2021/10/08 02:55:42;;;;;;;2.67;1.10;;;0.80;57.80;;;;;;4853546;28;20692;-85
2021/10/08 02:58:05;;;;;;;0.87;0.73;;;1.50;49.00;;;;;;4838869;28;20182;-82
2021/10/08 03:00:28;;;;;;;3.70;3.10;;;;;;;;;;4837572;28;20191;-77
2021/10/08 03:02:52;;;;;;;0.80;0.80;;;1.80;48.70;;;;;;4820981;28;20297;-86
2021/10/08 03:05:15;;;;;;;0.47;0.47;;;1.70;48.80;;;;;;4821989;28;20779;-86
2021/10/08 03:07:38;;;;;;;0.33;0.33;;;1.50;49.10;;;;;;4856031;28;20287;-87
2021/10/08 03:10:01;;;;;;;0.43;0.43;;;1.50;49.60;;;;;;4857524;28;20232;-86
2021/10/08 03:12:24;;;;;;;0.63;0.63;;;;;;;;;;4839513;28;20198;-85
2021/10/08 03:14:47;;;;;;;0.87;0.87;;;1.60;49.00;;;;;;4839389;28;20202;-85
2021/10/08 03:17:10;;;;;;;0.37;0.37;;;1.60;50.30;;;;;;4857455;28;20183;-85
2021/10/08 03:19:34;;;;;;;0.40;0.40;;;2.10;50.20;;;;;;4839593;28;20680;-84
2021/10/08 03:21:56;;;;;;;0.50;0.50;;;1.40;49.00;;;;;;4857019;28;20189;-86
2021/10/08 03:24:19;;;;;;;0.33;0.33;;;;;;;;;;4857457;28;20240;-82
2021/10/08 03:26:42;;;;;;;0.50;0.50;;;1.40;49.00;;;;;;4839519;28;20615;-87
2021/10/08 03:29:05;;;;;;;0.40;0.40;;;1.60;49.10;;;;;;4840333;28;20203;-83
2021/10/08 03:31:29;;;;;;;0.40;0.40;;;1.80;49.30;;;;;;4839689;28;20202;-85
2021/10/08 03:33:51;;;;;;;0.50;0.50;;;;;;;;;;4839260;28;20349;-85
2021/10/08 03:36:21;;;;;;;0.30;0.30;;;1.30;48.60;;;;;;4831416;28;20195;-87
2021/10/08 03:38:44;;;;;;;0.50;0.50;;;;;;;;;;4838163;28;20243;-85
2021/10/08 03:41:10;;;;;;;0.30;0.30;;;2.00;48.60;;;;;;4821537;28;20192;-84
2021/10/08 03:43:32;;;;;;;0.33;0.33;;;1.30;49.00;;;;;;4824276;28;20211;-78
2021/10/08 03:46:00;;;;;;;0.40;0.40;;;1.10;56.80;;;;;;4856896;28;20279;-82
2021/10/08 03:48:38;;;;;;;0.40;0.40;;;1.80;49.30;;;;;;4807531;28;20302;-82
2021/10/08 03:51:01;;;;;;;0.30;0.30;;;1.20;49.00;;;;;;4841748;28;20229;-81
2021/10/08 03:53:25;;;;;;;0.40;0.40;;;1.20;49.30;;;;;;4840226;28;20199;-81
2021/10/08 03:55:48;;;;;;;0.50;0.50;;;;;;;;;;4841737;28;20186;-78
2021/10/08 03:58:10;;;;;;;0.30;0.30;;;1.20;47.80;;;;;;4841808;28;20199;-86
2021/10/08 04:00:34;;;;;;;1.67;1.57;;;1.10;55.10;;;;;;4822049;28;20258;-82
2021/10/08 04:03:07;;;;;;;0.30;0.30;;;0.80;55.30;;;;;;4842254;28;20199;-82
2021/10/08 04:05:30;;;;;;;0.40;0.40;;;1.40;47.60;;;;;;4823703;28;20248;-83
2021/10/08 04:07:53;;;;;;;0.30;0.30;;;1.00;56.10;;;;;;4823587;28;20691;-77
2021/10/08 04:10:17;;;;;;;0.40;0.40;;;1.20;47.50;;;;;;4823641;28;20203;-85
2021/10/08 04:12:40;;;;;;;0.27;0.27;;;1.10;56.00;;;;;;4841170;28;20249;-82
2021/10/08 04:15:02;;;;;;;0.30;0.30;;;1.00;55.10;;;;;;4841478;28;20194;-79
2021/10/08 04:17:25;;;;;;;0.30;0.30;;;;;;;;;;4823425;28;20270;-84
2021/10/08 04:19:48;;;;;;;0.50;0.50;;;;;;;;;;4839989;28;20244;-79
2021/10/08 04:22:11;;;;;;;0.30;0.30;;;;;;;;;;4823861;28;20203;-82
2021/10/08 04:24:34;;;;;;;0.33;0.33;;;1.20;47.00;;;;;;4823707;28;20547;-85
2021/10/08 04:26:59;;;;;;;0.30;0.30;;;1.20;46.80;;;;;;4822861;28;20230;-86
2021/10/08 04:29:24;;;;;;;0.30;0.30;;;1.20;47.30;;;;;;4823367;28;20207;-84
2021/10/08 04:31:50;;;;;;;0.30;0.30;;;1.10;54.20;;;;;;4840734;28;20187;-82
2021/10/08 04:34:13;;;;;;;0.23;0.23;;;;;;;;;;4856509;28;20623;-75
2021/10/08 04:36:40;;;;;;;0.23;0.23;;;1.10;54.20;;;;;;4839637;28;20661;-76
2021/10/08 04:39:03;;;;;;;0.30;0.30;;;1.20;46.80;;;;;;4856435;28;20214;-78
2021/10/08 04:41:26;;;;;;;0.30;0.30;;;1.30;45.90;;;;;;4823360;28;20203;-74
2021/10/08 04:43:50;;;;;;;0.47;0.47;;;1.20;47.00;;;;;;4855428;28;20202;-80
2021/10/08 04:46:13;;;;;;;0.40;0.40;;;;;;;;;;4855699;28;20265;-82
2021/10/08 04:48:35;;;;;;;0.30;0.30;;;1.10;54.00;;;;;;4823182;28;20208;-85
2021/10/08 04:50:58;;;;;;;0.20;0.20;;;;;;;;;;4855447;28;20220;-75
2021/10/08 04:53:23;;;;;;;0.30;0.30;;;1.20;47.30;;;;;;4839411;28;20191;-81
2021/10/08 04:55:48;;;;;;;0.57;0.57;;;0.70;53.10;;;;;;4855116;28;20236;-81
2021/10/08 04:58:11;;;;;;;0.30;0.30;;;1.10;53.10;;;;;;4822714;28;20242;-87
2021/10/08 05:00:37;;;;;;;1.23;1.23;;;1.10;54.00;;;;;;4853265;28;20210;-86
2021/10/08 05:02:59;;;;;;;0.30;0.30;;;1.10;53.20;;;;;;4840358;28;20229;-86
2021/10/08 05:05:22;;;;;;;0.40;0.40;;;;;;;;;;4806797;28;20258;-84
2021/10/08 05:07:44;;;;;;;0.40;0.40;;;1.20;45.20;;;;;;4823530;28;20272;-78
2021/10/08 05:10:09;;;;;;;0.40;0.40;;;1.10;54.30;;;;;;4855563;28;20236;-78
2021/10/08 05:12:32;;;;;;;0.37;0.37;;;1.00;52.90;;;;;;4822009;28;20200;-77
2021/10/08 05:14:57;;;;;;;0.37;0.37;;;1.20;45.50;;;;;;4822011;28;20613;-80
2021/10/08 05:17:23;;;;;;;0.30;0.30;;;1.30;45.20;;;;;;4822537;28;20199;-86
2021/10/08 05:19:46;;;;;;;0.53;0.53;;;;;;;;;;4822048;28;20223;-85
2021/10/08 05:22:17;;;;;;;0.53;0.47;;;1.20;45.10;;;;;;4821848;28;20255;-78
2021/10/08 05:24:40;;;;;;;0.27;0.27;;;1.30;44.30;;;;;;4822291;28;20195;-87
2021/10/08 05:27:03;;;;;;;0.20;0.20;;;1.40;45.40;;;;;;4839829;28;20249;-80
2021/10/08 05:29:27;;;;;;;0.30;0.30;;;;;;;;;;4822067;28;20211;-85
2021/10/08 05:31:50;;;;;;;0.40;0.40;;;;;;;;;;4821724;28;20203;-81
2021/10/08 05:34:15;;;;;;;0.30;0.30;;;1.50;44.90;;;;;;4821789;28;20775;-80
2021/10/08 05:36:38;;;;;;;0.30;0.30;;;1.50;43.70;;;;;;4821674;28;20242;-83
2021/10/08 05:39:01;;;;;;;0.30;0.30;;;1.50;43.60;;;;;;4853939;28;20213;-86
2021/10/08 05:41:24;;;;;;;0.20;0.20;;;1.60;43.30;;;;;;4821874;28;20262;-84
2021/10/08 05:43:46;;;;;;;0.40;0.40;;;1.70;43.50;;;;;;4805361;28;20247;-83
2021/10/08 05:46:09;;;;;;;0.30;0.30;;;1.70;43.00;;;;;;4821757;28;20334;-84
2021/10/08 05:48:32;;;;;;;0.30;0.30;;;2.60;43.10;;;;;;4821716;28;20246;-81
2021/10/08 05:50:56;;;;;;;0.40;0.40;;;1.30;43.50;;;;;;4839116;28;20648;-83
2021/10/08 05:53:19;;;;;;;0.30;0.30;;;;;;;;;;4822010;28;20203;-83
2021/10/08 05:55:42;;;;;;;0.27;0.27;;;2.00;42.60;;;;;;4821017;28;20246;-84
2021/10/08 05:58:06;;;;;;;0.40;0.40;;;2.10;42.10;;;;;;4821536;28;20199;-83
2021/10/08 06:00:29;;;;;;;1.07;1.07;;;;;;;;;;4802580;28;20200;-77
2021/10/08 06:02:51;;;;;;;0.30;0.30;;;2.30;41.70;;;;;;4821748;28;20668;-85
2021/10/08 06:05:19;;;;;;;0.30;0.30;;;;;;;;;;4821077;28;20223;-83
2021/10/08 06:07:43;;;;;;;0.43;0.43;;;2.40;42.60;;;;;;4818803;28;20287;-83
2021/10/08 06:10:06;;;;;;;0.30;0.30;;;2.50;41.60;;;;;;4820016;28;20222;-86
2021/10/08 06:12:29;;;;;;;0.40;0.40;;;2.60;42.20;;;;;;4818379;28;20195;-85
2021/10/08 06:14:52;;;;;;;0.40;0.40;;;2.70;42.50;;;;;;4818547;28;20206;-84
2021/10/08 06:17:15;;;;;;;0.20;0.20;;;2.70;41.30;;;;;;4818598;28;20199;-87
2021/10/08 06:19:40;;;;;;;0.30;0.30;;;;;;;;;;4818869;28;20262;-82
2021/10/08 06:22:03;;;;;;;0.33;0.33;;;3.50;40.60;;;;;;4851712;28;20559;-76
2021/10/08 06:24:27;;;;;;;0.33;0.33;;;4.30;38.90;;;;;;4851428;28;20671;-86
2021/10/08 06:26:49;;;;;;;0.40;0.40;;;4.50;38.40;;;;;;4819796;28;20281;-87
2021/10/08 06:29:14;;;;;;;0.30;0.30;;;5.10;39.70;;;;;;4818159;28;20211;-87
2021/10/08 06:31:37;;;;;;;0.30;0.30;;;;;;;;;;4851546;28;20707;-87
2021/10/08 06:34:00;;;;;;;0.50;0.50;;;5.40;48.30;;;;;;4851072;28;20193;-86
2021/10/08 06:36:23;;;;;;;0.33;0.33;;;5.00;53.80;;;;;;4817967;28;20677;-83
2021/10/08 06:38:47;;;;;;;0.40;0.40;;;5.20;62.30;;;;;;4817668;28;20665;-80
2021/10/08 06:41:11;;;;;;;0.40;0.40;;;5.00;71.80;;;;;;4802192;28;20621;-85
2021/10/08 06:43:35;;;;;;;0.40;0.40;;;5.10;70.60;;;;;;4812920;28;20195;-86
2021/10/08 06:46:02;;;;;;;0.40;0.40;;;4.90;44.40;;;;;;4818658;28;20203;-82
2021/10/08 06:48:27;;;;;;;0.50;0.50;;;4.80;43.70;;;;;;4815851;28;20230;-75
2021/10/08 06:50:49;;;;;;;0.70;0.70;;;3.80;43.80;;;;;;4816874;28;20241;-75
2021/10/08 06:53:30;;;;;;;0.40;0.40;;;5.70;43.70;;;;;;4849834;28;20228;-80
2021/10/08 06:56:03;;;;;;;0.47;0.47;;;;;;;;;;4833871;28;20651;-75
2021/10/08 06:58:49;;;;;;;0.87;0.87;;;6.50;45.20;;;;;;4815478;28;20215;-76
2021/10/08 07:01:12;;;;;;;0.40;0.40;;;;;;;;;;4846943;28;20194;-79
2021/10/08 07:03:34;;;;;;;0.57;0.57;;;6.20;45.50;;;;;;4825224;28;20861;-79
2021/10/08 07:05:57;;;;;;;0.67;0.67;;;;;;;;;;4828771;28;20230;-77
2021/10/08 07:08:20;;;;;;;0.40;0.40;;;;;;;;;;4834278;28;20238;-85
2021/10/08 07:10:43;;;;;;;0.87;0.87;;;;;;;;;;4836555;28;20183;-84
2021/10/08 07:13:05;;;;;;;0.50;0.50;;;;;;;;;;4819345;28;20204;-84
2021/10/08 07:15:29;;;;;;;0.50;0.50;;;6.60;45.50;;;;;;4837268;28;20222;-90
2021/10/08 07:17:54;;;;;;;0.70;0.70;;;6.20;45.90;;;;;;4851431;28;20300;-85
2021/10/08 07:20:19;;;;;;;0.60;0.60;;;6.40;46.00;;;;;;4836563;28;20183;-78
2021/10/08 07:22:42;;;;;;;0.70;0.70;;;6.30;45.90;;;;;;4836354;28;20183;-78
2021/10/08 07:25:06;;;;;;;0.60;0.60;;;6.60;46.10;;;;;;4836956;28;20202;-76
2021/10/08 07:27:29;;;;;;;0.63;0.63;;;6.60;45.70;;;;;;4837390;28;20552;-77
2021/10/08 07:29:51;;;;;;;0.60;0.60;;;6.50;45.80;;;;;;4818793;28;20250;-76
2021/10/08 07:32:15;;;;;;;0.83;0.83;;;7.00;46.50;;;;;;4836610;28;20199;-78
2021/10/08 07:34:39;;;;;;;0.50;0.50;;;7.50;46.30;;;;;;4836833;28;20187;-76
2021/10/08 07:37:01;;;;;;;0.63;0.63;;;7.60;46.30;;;;;;4837181;28;20210;-78
2021/10/08 07:39:24;;;;;;;0.60;0.60;;;7.90;46.50;;;;;;4836311;28;20252;-86
2021/10/08 07:41:46;;;;;;;0.70;0.70;;;;;;;;;;4819101;28;20760;-86
2021/10/08 07:44:09;;;;;;;0.50;0.50;;;8.90;47.50;;;;;;4818694;28;20334;-88
2021/10/08 07:46:31;;;;;;;0.53;0.53;;;9.60;48.00;;;;;;4851569;28;20220;-85
2021/10/08 07:48:55;;;;;;;0.70;0.70;;;10.30;48.80;;;;;;4836041;28;20183;-79
2021/10/08 07:51:18;;;;;;;1.60;0.73;;;;;;;;;;4836701;28;20233;-75
2021/10/08 07:53:40;;;;;;;4.20;1.50;;;11.40;49.40;;;;;;4818812;28;20195;-78
2021/10/08 07:56:03;;;;;;;2.90;1.00;;;;;;;;;;4836187;28;20187;-76
2021/10/08 07:58:27;;;;;;;2.77;1.13;;;10.60;49.30;;;;;;4818266;28;20219;-77
2021/10/08 08:00:50;;;;;;;3.37;1.43;;;10.50;49.40;;;;;;4834242;28;20190;-76
2021/10/08 08:03:12;;;;;;;3.03;1.20;;;;;;;;;;4836716;28;20199;-77
2021/10/08 08:05:37;;;;;;;2.20;1.23;;;10.90;49.50;;;;;;4836086;28;20253;-76
2021/10/08 08:08:00;;;;;;;5.03;2.27;;;10.60;50.20;;;;;;4835573;28;20284;-79
2021/10/08 08:10:23;;;;;;;1.33;0.97;;;10.90;49.80;;;;;;4836680;28;20656;-77
2021/10/08 08:12:45;;;;;;;3.27;1.60;;;;;;;;;;4836417;28;20179;-78
2021/10/08 08:15:08;;;;;;;2.00;1.03;;;11.10;50.50;;;;;;4836544;28;20198;-76
2021/10/08 08:17:31;;;;;;;1.97;1.00;;;;;;;;;;4835984;28;20198;-80
2021/10/08 08:19:54;;;;;;;2.50;1.33;;;;;;;;;;4835695;28;20719;-82
2021/10/08 08:22:18;;;;;;;1.43;0.90;;;10.60;50.40;;;;;;4836853;28;20272;-76
2021/10/08 08:24:40;;;;;;;1.93;1.10;;;10.20;49.60;;;;;;4835887;28;20195;-77
2021/10/08 08:27:03;;;;;;;1.90;0.90;;;10.80;49.80;;;;;;4835890;28;20190;-80
2021/10/08 08:29:26;;;;;;;2.53;1.20;;;;;;;;;;4853837;28;20209;-77
2021/10/08 08:31:49;;;;;;;2.83;1.60;;;10.70;49.80;;;;;;4839361;28;20194;-81
2021/10/08 08:34:11;;;;;;;1.53;0.90;;;11.40;50.10;;;;;;4822333;28;20223;-77
2021/10/08 08:36:34;;;;;;;1.97;1.17;;;10.70;49.60;;;;;;4839633;28;20191;-75
2021/10/08 08:39:03;;;;;;;2.60;1.43;;;11.30;49.90;;;;;;4838193;28;20549;-76
2021/10/08 08:41:25;;;;;;;2.27;1.00;;;;;;;;;;4839277;28;20619;-77
2021/10/08 08:43:48;;;;;;;2.80;1.43;;;;;;;;;;4838956;28;20195;-78
2021/10/08 08:46:11;;;;;;;0.97;0.60;;;;;;;;;;4838857;28;20191;-79
2021/10/08 08:48:34;;;;;;;1.93;1.23;;;11.60;50.10;;;;;;4838415;28;20234;-89
2021/10/08 08:50:56;;;;;;;2.30;1.30;;;11.70;50.40;;;;;;4825810;28;20211;-86
2021/10/08 08:53:22;;;;;;;0.73;0.50;;;12.30;51.10;;;;;;4842651;28;20194;-79
2021/10/08 08:55:46;;;;;;;2.10;1.23;;;12.70;50.90;;;;;;4842374;28;20229;-86
2021/10/08 08:58:08;;;;;;;5.67;2.60;;;;;;;;;;4821780;28;20216;-84
2021/10/08 09:00:31;;;;;;;21.53;6.67;;;13.30;52.00;;;;;;4836590;28;20206;-84
2021/10/08 09:02:56;;;;;;;5.20;1.77;;;13.50;51.30;;;;;;4823597;28;20207;-85
2021/10/08 09:05:20;;;;;;;2.60;0.90;;;14.00;52.50;;;;;;4839246;28;20210;-79
2021/10/08 09:07:42;;;;;;;5.33;1.57;;;13.80;51.90;;;;;;4821174;28;20630;-85
2021/10/08 09:10:13;;;;;;;5.23;1.53;;;14.90;52.70;;;;;;4819278;28;20199;-82
2021/10/08 09:12:38;;;;;;;3.30;0.97;;;14.80;53.30;;;;;;4820929;28;20207;-79
2021/10/08 09:15:01;;;;;;;3.97;1.07;;;;;;;;;;4838566;28;20187;-76
2021/10/08 09:17:24;;;;;;;4.47;1.20;;;;;;;;;;4838620;28;20249;-82
2021/10/08 09:19:58;;;;;;;5.90;1.33;;;16.20;54.10;;;;;;4837834;28;20186;-83
2021/10/08 09:22:23;;;;;;;4.97;1.20;;;15.70;53.60;;;;;;4819977;28;20254;-81
2021/10/08 09:24:46;;;;;;;7.97;1.63;;;;;;;;;;4838442;28;20192;-81
2021/10/08 09:27:09;;;;;;;8.00;1.63;;;17.10;54.30;;;;;;4838437;28;20248;-83
2021/10/08 09:29:34;;;;;;;4.83;1.07;;;18.30;56.30;;;;;;4837899;28;20261;-81
2021/10/08 09:31:57;;;;;;;10.37;2.13;;;;;;;;;;4837005;28;20198;-80
2021/10/08 09:34:22;;;;;;;4.67;1.00;;;20.80;57.50;;;;;;4838435;28;20195;-82
2021/10/08 09:36:49;;;;;;;11.00;2.07;;;22.60;59.40;;;;;;4838218;28;20215;-80
2021/10/08 09:39:19;;;;;;;7.50;1.40;;;23.70;60.60;;;;;;4836663;28;20199;-81
2021/10/08 09:41:41;;;;;;;10.63;1.80;;;25.30;45.80;;;;;;4837394;28;20198;-82
2021/10/08 09:44:05;;;;;;;6.87;1.33;;;25.70;47.00;;;;;;4837616;28;20711;-79
2021/10/08 09:46:29;;;;;;;8.10;1.47;;;26.30;47.40;;;;;;4838144;28;20206;-76
2021/10/08 09:48:53;;;;;;;13.53;2.30;;;26.50;47.40;;;;;;4836495;28;20277;-75
2021/10/08 09:51:17;;;;;;;7.60;1.27;;;27.30;48.00;;;;;;4837824;28;20205;-75
2021/10/08 09:53:55;;;;;;;14.87;2.23;;;27.80;48.20;;;;;;4836654;28;20245;-80
2021/10/08 09:56:30;;;;;;;11.97;1.60;;;29.30;48.70;;;;;;4837792;28;20200;-74
2021/10/08 09:58:53;;;;;;;19.03;2.33;;;;;;;;;;4836213;28;20749;-76
2021/10/08 10:01:25;;;;;;;12.37;1.67;;;31.70;49.80;;;;;;4836451;28;20194;-79
2021/10/08 10:03:53;;;;;;;24.90;3.13;;;32.80;50.30;;;;;;4819356;28;20636;-78
2021/10/08 10:06:16;;;;;;;11.83;1.53;;;;;;;;;;4837775;28;20190;-81
2021/10/08 10:08:52;;;;;;;18.03;2.20;;;34.50;51.00;;;;;;4835625;28;20296;-78
2021/10/08 10:11:34;;;;;;;16.17;1.87;;;35.40;51.40;;;;;;4821184;28;20206;-80
2021/10/08 10:16:47;;;;;;;28.10;3.13;;;;;;;;;;4830600;28;20288;-77
2021/10/08 10:19:11;;;;;;;20.30;2.37;;;37.00;52.10;;;;;;4837063;28;20660;-80
2021/10/08 10:21:36;;;;;;;21.73;6.77;;;37.60;52.30;;;;;;4819897;28;20573;-84
2021/10/08 10:24:02;;;;;;;10.32;1.63;;;38.40;52.60;;;;;;4837305;28;20700;-80
2021/10/08 10:26:27;;;;;;;31.98;25.50;;;38.90;52.80;;;;;;4836297;28;20186;-84
2021/10/08 10:28:50;;;;;;;37.60;9.07;;;;;;;;;;4834991;28;20203;-82
2021/10/08 10:31:13;;;;;;;17.98;2.05;;;;;;;;;;4819705;28;20187;-82
2021/10/08 10:33:36;;;;;;;24.27;2.95;;;;;;;;;;4837562;28;20191;-84
2021/10/08 10:36:01;;;;;;;20.55;2.38;;;38.60;52.80;;;;;;4837319;28;20197;-82
2021/10/08 10:38:29;;;;;;;17.67;2.50;;;38.90;52.80;;;;;;4835883;28;20206;-82
2021/10/08 10:41:05;;;;;;;36.20;4.05;;;39.10;53.00;;;;;;4819224;28;20230;-80
2021/10/08 10:43:33;;;;;;;32.10;4.18;;;39.60;53.10;;;;;;4837276;28;20186;-81
2021/10/08 10:46:30;;;;;;;33.38;3.92;;;40.00;53.30;;;;;;4836824;28;20186;-79
2021/10/08 10:49:28;;;;;;;23.17;2.67;;;40.40;53.40;;;;;;4835502;28;20683;-83
2021/10/08 10:52:13;;;;;;;28.08;3.08;;;40.90;53.20;;;;;;4836119;28;20267;-81
2021/10/08 10:54:59;;;;;;;15.75;1.95;;;40.20;53.40;;;;;;4819437;28;20253;-81
2021/10/08 10:57:56;;;;;;;18.17;2.28;;;40.20;53.40;;;;;;4837079;28;20179;-80
2021/10/08 11:00:24;;;;;;;9.65;1.30;;;39.50;53.20;;;;;;4836392;28;20183;-81
2021/10/08 11:02:47;;;;;;;29.00;3.25;;;38.10;52.70;;;;;;4802694;28;20200;-80
2021/10/08 11:05:19;;;;;;;16.20;1.92;;;37.10;52.40;;;;;;4819078;28;20199;-81
2021/10/08 11:08:05;;;;;;;22.92;2.63;;;37.10;52.40;;;;;;4852110;28;20714;-81
2021/10/08 11:10:28;;;;;;;15.05;1.75;;;;;;;;;;4854999;28;20201;-82
2021/10/08 11:12:51;;;;;;;31.37;3.73;;;;;;;;;;4824821;28;20214;-82
2021/10/08 11:15:35;;;;;;;13.30;1.67;;;39.10;53.00;;;;;;4836832;28;20190;-81
2021/10/08 11:17:59;;;;;;;46.78;10.93;;;39.70;53.30;;;;;;4818624;28;20539;-80
2021/10/08 11:20:46;;;;;;;15.80;1.95;;;40.20;53.40;;;;;;4835813;28;20214;-80
2021/10/08 11:23:25;;;;;;;18.92;2.30;;;41.10;53.70;;;;;;4819512;28;20258;-82
2021/10/08 11:25:49;;;;;;;27.02;3.15;;;41.70;53.90;;;;;;4836637;28;20174;-82
2021/10/08 11:28:13;;;;;;;57.58;6.40;;;;;;;;;;4836042;28;20523;-84
2021/10/08 11:30:36;;;;;;;28.55;3.38;;;42.30;52.50;;;;;;4818701;28;20203;-81
2021/10/08 11:32:59;;;;;;;32.28;3.63;;;41.70;53.70;;;;;;4834529;28;20198;-79
2021/10/08 11:35:30;;;;;;;13.13;1.65;;;41.80;53.90;;;;;;4836419;28;20252;-80
2021/10/08 11:37:53;;;;;;;25.38;2.88;;;;;;;;;;4836341;28;20645;-80
2021/10/08 11:40:27;;;;;;;16.30;2.05;;;42.00;53.30;;;;;;4836310;28;20210;-80
2021/10/08 11:42:56;;;;;;;29.65;3.38;;;;;;;;;;4835674;28;20178;-79
2021/10/08 11:45:33;;;;;;;15.68;1.95;;;41.30;53.80;;;;;;4818562;28;20194;-81
2021/10/08 11:48:07;;;;;;;40.65;4.38;;;42.20;53.60;;;;;;4835789;28;20694;-79
2021/10/08 11:50:43;;;;;;;18.35;2.17;;;;;;;;;;4836144;28;20600;-80
2021/10/08 11:53:08;;;;;;;19.00;2.28;;;43.50;54.30;;;;;;4835776;28;20181;-83
2021/10/08 11:55:38;;;;;;;16.23;1.90;;;42.90;54.30;;;;;;4836639;28;20186;-80
2021/10/08 11:58:04;;;;;;;33.35;3.90;;;43.10;54.40;;;;;;4851053;28;20214;-81
2021/10/08 12:00:35;;;;;;;80.43;8.88;;;43.40;54.50;;;;;;4834761;28;20211;-81
2021/10/08 12:03:00;;;;;;;43.35;5.07;;;43.50;54.50;;;;;;4837305;28;20183;-81
2021/10/08 12:05:23;;;;;;;13.30;1.65;;;;;;;;;;4839624;28;20222;-81
2021/10/08 12:07:57;;;;;;;29.63;3.40;;;45.00;53.50;;;;;;4839611;28;20688;-80
2021/10/08 12:10:20;;;;;;;14.80;1.83;;;;;;;;;;4839811;28;20182;-80
2021/10/08 12:12:52;;;;;;;16.23;2.00;;;44.50;54.90;;;;;;4822511;28;20206;-83
2021/10/08 12:15:21;;;;;;;16.60;2.03;;;44.20;54.80;;;;;;4837573;28;20576;-81
2021/10/08 12:17:50;;;;;;;16.98;2.00;;;43.90;54.70;;;;;;4839190;28;20805;-81
2021/10/08 12:20:20;;;;;;;18.75;2.38;;;43.80;54.60;;;;;;4820117;28;20266;-82
2021/10/08 12:22:43;;;;;;;20.35;2.42;;;43.30;53.80;;;;;;4820453;28;20187;-83
2021/10/08 12:25:07;;;;;;;24.50;2.88;;;44.00;54.00;;;;;;4834881;28;20190;-82
2021/10/08 12:27:30;;;;;;;14.43;1.83;;;;;;;;;;4820764;28;20183;-81
2021/10/08 12:29:54;;;;;;;20.02;2.40;;;45.30;55.10;;;;;;4802394;28;20207;-83
2021/10/08 12:32:18;;;;;;;13.10;1.63;;;44.30;54.20;;;;;;4820461;28;20218;-81
2021/10/08 12:34:45;;;;;;;13.98;1.70;;;44.90;55.00;;;;;;4802831;28;20204;-82
2021/10/08 12:37:11;;;;;;;14.57;1.83;;;44.20;53.40;;;;;;4801972;28;20235;-84
2021/10/08 12:39:35;;;;;;;13.82;1.73;;;;;;;;;;4838578;28;20241;-82
2021/10/08 12:42:00;;;;;;;21.00;2.50;;;45.00;53.60;;;;;;4839266;28;20186;-79
2021/10/08 12:44:24;;;;;;;14.77;1.85;;;45.60;54.80;;;;;;4839043;28;20236;-82
2021/10/08 12:47:07;;;;;;;32.53;3.85;;;45.40;54.90;;;;;;4838194;28;20213;-81
2021/10/08 12:49:30;;;;;;;13.27;1.65;;;;;;;;;;4788504;28;20196;-83
2021/10/08 12:51:54;;;;;;;25.75;2.97;;;43.90;54.70;;;;;;4838970;28;20237;-80
2021/10/08 12:54:22;;;;;;;14.10;1.80;;;44.10;54.80;;;;;;4839005;28;20187;-81
2021/10/08 12:56:45;;;;;;;21.67;2.53;;;43.10;54.50;;;;;;4839046;28;20191;-85
2021/10/08 12:59:07;;;;;;;13.15;1.67;;;41.90;54.10;;;;;;4819784;28;20223;-84
2021/10/08 13:01:31;;;;;;;17.02;2.15;;;;;;;;;;4837110;28;20245;-82
2021/10/08 13:03:55;;;;;;;19.98;2.38;;;39.50;53.40;;;;;;4821411;28;20195;-84
2021/10/08 13:06:27;;;;;;;15.57;1.88;;;38.60;53.00;;;;;;4838958;28;20190;-82